sensor_id;sensor_type;location;lat;lon;timestamp;P1;durP1;ratioP1;P2;durP2;ratioP2
16286;SDS011;8251;53.568;10.018;2024-01-30T00:01:09;7.93;;;5.90;;
16286;SDS011;8251;53.568;10.018;2024-01-30T00:03:36;7.90;;;5.60;;
16286;SDS011;8251;53.568;10.018;2024-01-30T00:06:02;11.60;;;5.43;;
16286;SDS011;8251;53.568;10.018;2024-01-30T00:08:29;9.47;;;4.83;;
16286;SDS011;8251;53.568;10.018;2024-01-30T00:10:59;7.23;;;5.13;;
16286;SDS011;8251;53.568;10.018;2024-01-30T00:13:29;8.80;;;5.37;;
16286;SDS011;8251;53.568;10.018;2024-01-30T00:18:49;9.33;;;5.07;;
16286;SDS011;8251;53.568;10.018;2024-01-30T00:21:19;8.50;;;4.57;;
16286;SDS011;8251;53.568;10.018;2024-01-30T00:23:49;9.17;;;5.73;;
16286;SDS011;8251;53.568;10.018;2024-01-30T00:26:20;9.70;;;5.17;;
16286;SDS011;8251;53.568;10.018;2024-01-30T00:28:51;7.33;;;5.10;;
16286;SDS011;8251;53.568;10.018;2024-01-30T00:31:18;8.00;;;5.03;;
16286;SDS011;8251;53.568;10.018;2024-01-30T00:33:47;8.97;;;5.43;;
16286;SDS011;8251;53.568;10.018;2024-01-30T00:36:20;7.60;;;5.07;;
16286;SDS011;8251;53.568;10.018;2024-01-30T00:38:47;11.33;;;4.93;;
16286;SDS011;8251;53.568;10.018;2024-01-30T00:41:17;10.23;;;4.80;;
16286;SDS011;8251;53.568;10.018;2024-01-30T00:43:44;7.97;;;5.63;;
16286;SDS011;8251;53.568;10.018;2024-01-30T00:46:12;9.03;;;5.13;;
16286;SDS011;8251;53.568;10.018;2024-01-30T00:48:39;7.70;;;4.70;;
16286;SDS011;8251;53.568;10.018;2024-01-30T00:51:09;9.17;;;4.97;;
16286;SDS011;8251;53.568;10.018;2024-01-30T00:53:36;6.33;;;4.20;;
16286;SDS011;8251;53.568;10.018;2024-01-30T00:56:03;11.00;;;4.57;;
16286;SDS011;8251;53.568;10.018;2024-01-30T00:58:30;6.77;;;4.93;;
16286;SDS011;8251;53.568;10.018;2024-01-30T01:01:03;9.20;;;4.63;;
16286;SDS011;8251;53.568;10.018;2024-01-30T01:03:31;13.97;;;5.20;;
16286;SDS011;8251;53.568;10.018;2024-01-30T01:06:04;8.90;;;5.10;;
16286;SDS011;8251;53.568;10.018;2024-01-30T01:08:31;9.07;;;4.60;;
16286;SDS011;8251;53.568;10.018;2024-01-30T01:11:08;9.53;;;5.63;;
16286;SDS011;8251;53.568;10.018;2024-01-30T01:13:35;8.47;;;5.23;;
16286;SDS011;8251;53.568;10.018;2024-01-30T01:16:02;11.07;;;5.20;;
16286;SDS011;8251;53.568;10.018;2024-01-30T01:18:34;8.13;;;4.47;;
16286;SDS011;8251;53.568;10.018;2024-01-30T01:21:00;10.93;;;4.90;;
16286;SDS011;8251;53.568;10.018;2024-01-30T01:23:27;10.10;;;5.40;;
16286;SDS011;8251;53.568;10.018;2024-01-30T01:25:54;10.60;;;4.87;;
16286;SDS011;8251;53.568;10.018;2024-01-30T01:28:21;7.23;;;4.37;;
16286;SDS011;8251;53.568;10.018;2024-01-30T01:30:48;7.57;;;5.07;;
16286;SDS011;8251;53.568;10.018;2024-01-30T01:33:16;9.83;;;4.33;;
16286;SDS011;8251;53.568;10.018;2024-01-30T01:35:44;8.60;;;4.73;;
16286;SDS011;8251;53.568;10.018;2024-01-30T01:38:26;9.57;;;4.97;;
16286;SDS011;8251;53.568;10.018;2024-01-30T01:40:53;9.53;;;4.10;;
16286;SDS011;8251;53.568;10.018;2024-01-30T01:43:20;8.87;;;5.00;;
16286;SDS011;8251;53.568;10.018;2024-01-30T01:45:47;10.77;;;4.37;;
16286;SDS011;8251;53.568;10.018;2024-01-30T01:48:14;7.27;;;5.03;;
16286;SDS011;8251;53.568;10.018;2024-01-30T01:50:54;6.70;;;4.30;;
16286;SDS011;8251;53.568;10.018;2024-01-30T01:53:21;7.23;;;4.33;;
16286;SDS011;8251;53.568;10.018;2024-01-30T01:55:48;7.13;;;4.13;;
16286;SDS011;8251;53.568;10.018;2024-01-30T01:58:18;13.33;;;4.23;;
16286;SDS011;8251;53.568;10.018;2024-01-30T02:00:48;11.03;;;4.80;;
16286;SDS011;8251;53.568;10.018;2024-01-30T02:03:19;9.23;;;4.90;;
16286;SDS011;8251;53.568;10.018;2024-01-30T02:05:47;9.07;;;4.53;;
16286;SDS011;8251;53.568;10.018;2024-01-30T02:08:15;6.97;;;4.57;;
16286;SDS011;8251;53.568;10.018;2024-01-30T02:10:42;7.00;;;4.37;;
16286;SDS011;8251;53.568;10.018;2024-01-30T02:16:01;10.27;;;4.87;;
16286;SDS011;8251;53.568;10.018;2024-01-30T02:18:30;9.10;;;4.80;;
16286;SDS011;8251;53.568;10.018;2024-01-30T02:21:34;7.23;;;4.67;;
16286;SDS011;8251;53.568;10.018;2024-01-30T02:24:02;5.57;;;4.20;;
16286;SDS011;8251;53.568;10.018;2024-01-30T02:26:29;8.07;;;4.70;;
16286;SDS011;8251;53.568;10.018;2024-01-30T02:29:02;8.40;;;4.20;;
16286;SDS011;8251;53.568;10.018;2024-01-30T02:31:29;9.40;;;4.60;;
16286;SDS011;8251;53.568;10.018;2024-01-30T02:33:56;10.10;;;4.53;;
16286;SDS011;8251;53.568;10.018;2024-01-30T02:36:23;8.60;;;4.90;;
16286;SDS011;8251;53.568;10.018;2024-01-30T02:38:51;10.63;;;4.37;;
16286;SDS011;8251;53.568;10.018;2024-01-30T02:41:18;7.33;;;4.67;;
16286;SDS011;8251;53.568;10.018;2024-01-30T02:43:45;7.90;;;4.17;;
16286;SDS011;8251;53.568;10.018;2024-01-30T02:46:12;6.80;;;4.77;;
16286;SDS011;8251;53.568;10.018;2024-01-30T02:48:39;10.27;;;4.70;;
16286;SDS011;8251;53.568;10.018;2024-01-30T02:51:05;6.73;;;4.87;;
16286;SDS011;8251;53.568;10.018;2024-01-30T02:53:32;7.23;;;3.90;;
16286;SDS011;8251;53.568;10.018;2024-01-30T02:56:01;7.87;;;4.63;;
16286;SDS011;8251;53.568;10.018;2024-01-30T02:58:30;7.53;;;4.80;;
16286;SDS011;8251;53.568;10.018;2024-01-30T03:01:04;6.63;;;4.60;;
16286;SDS011;8251;53.568;10.018;2024-01-30T03:03:34;8.07;;;4.93;;
16286;SDS011;8251;53.568;10.018;2024-01-30T03:06:01;8.03;;;4.70;;
16286;SDS011;8251;53.568;10.018;2024-01-30T03:08:42;6.50;;;4.30;;
16286;SDS011;8251;53.568;10.018;2024-01-30T03:11:10;9.87;;;5.03;;
16286;SDS011;8251;53.568;10.018;2024-01-30T03:13:40;6.87;;;4.80;;
16286;SDS011;8251;53.568;10.018;2024-01-30T03:16:08;9.30;;;4.70;;
16286;SDS011;8251;53.568;10.018;2024-01-30T03:18:35;6.23;;;5.00;;
16286;SDS011;8251;53.568;10.018;2024-01-30T03:21:27;7.30;;;4.27;;
16286;SDS011;8251;53.568;10.018;2024-01-30T03:23:54;6.97;;;4.43;;
16286;SDS011;8251;53.568;10.018;2024-01-30T03:26:22;8.27;;;4.83;;
16286;SDS011;8251;53.568;10.018;2024-01-30T03:28:53;7.67;;;5.00;;
16286;SDS011;8251;53.568;10.018;2024-01-30T03:31:24;10.40;;;5.50;;
16286;SDS011;8251;53.568;10.018;2024-01-30T03:33:51;8.10;;;4.83;;
16286;SDS011;8251;53.568;10.018;2024-01-30T03:36:30;10.17;;;4.97;;
16286;SDS011;8251;53.568;10.018;2024-01-30T03:39:03;6.60;;;4.40;;
16286;SDS011;8251;53.568;10.018;2024-01-30T03:41:33;9.70;;;5.00;;
16286;SDS011;8251;53.568;10.018;2024-01-30T03:44:00;8.47;;;5.13;;
16286;SDS011;8251;53.568;10.018;2024-01-30T03:46:32;10.37;;;4.87;;
16286;SDS011;8251;53.568;10.018;2024-01-30T03:49:02;11.13;;;5.20;;
16286;SDS011;8251;53.568;10.018;2024-01-30T03:51:29;7.77;;;5.20;;
16286;SDS011;8251;53.568;10.018;2024-01-30T03:53:56;10.00;;;5.37;;
16286;SDS011;8251;53.568;10.018;2024-01-30T03:56:23;8.90;;;5.03;;
16286;SDS011;8251;53.568;10.018;2024-01-30T03:58:52;9.57;;;4.73;;
16286;SDS011;8251;53.568;10.018;2024-01-30T04:01:25;7.70;;;5.47;;
16286;SDS011;8251;53.568;10.018;2024-01-30T04:03:57;9.23;;;4.87;;
16286;SDS011;8251;53.568;10.018;2024-01-30T04:06:24;8.70;;;5.50;;
16286;SDS011;8251;53.568;10.018;2024-01-30T04:08:52;9.23;;;5.33;;
16286;SDS011;8251;53.568;10.018;2024-01-30T04:11:19;8.47;;;5.30;;
16286;SDS011;8251;53.568;10.018;2024-01-30T04:13:57;11.90;;;5.37;;
16286;SDS011;8251;53.568;10.018;2024-01-30T04:16:24;8.90;;;5.27;;
16286;SDS011;8251;53.568;10.018;2024-01-30T04:18:51;6.70;;;5.23;;
16286;SDS011;8251;53.568;10.018;2024-01-30T04:21:20;8.50;;;5.03;;
16286;SDS011;8251;53.568;10.018;2024-01-30T04:23:48;12.10;;;5.73;;
16286;SDS011;8251;53.568;10.018;2024-01-30T04:26:18;13.27;;;6.50;;
16286;SDS011;8251;53.568;10.018;2024-01-30T04:28:46;8.37;;;5.00;;
16286;SDS011;8251;53.568;10.018;2024-01-30T04:31:19;9.20;;;5.73;;
16286;SDS011;8251;53.568;10.018;2024-01-30T04:33:46;6.87;;;4.73;;
16286;SDS011;8251;53.568;10.018;2024-01-30T04:36:13;11.50;;;5.97;;
16286;SDS011;8251;53.568;10.018;2024-01-30T04:38:41;7.63;;;5.57;;
16286;SDS011;8251;53.568;10.018;2024-01-30T04:41:20;10.60;;;6.13;;
16286;SDS011;8251;53.568;10.018;2024-01-30T04:44:09;6.83;;;5.30;;
16286;SDS011;8251;53.568;10.018;2024-01-30T04:46:44;10.67;;;5.73;;
16286;SDS011;8251;53.568;10.018;2024-01-30T04:49:14;8.53;;;6.40;;
16286;SDS011;8251;53.568;10.018;2024-01-30T04:51:41;10.57;;;5.43;;
16286;SDS011;8251;53.568;10.018;2024-01-30T04:54:08;10.17;;;6.00;;
16286;SDS011;8251;53.568;10.018;2024-01-30T04:56:52;9.23;;;5.50;;
16286;SDS011;8251;53.568;10.018;2024-01-30T04:59:21;10.10;;;5.93;;
16286;SDS011;8251;53.568;10.018;2024-01-30T05:01:53;7.77;;;5.73;;
16286;SDS011;8251;53.568;10.018;2024-01-30T05:04:20;11.30;;;5.97;;
16286;SDS011;8251;53.568;10.018;2024-01-30T05:06:49;8.23;;;6.03;;
16286;SDS011;8251;53.568;10.018;2024-01-30T05:09:16;12.13;;;5.90;;
16286;SDS011;8251;53.568;10.018;2024-01-30T05:11:44;8.67;;;5.90;;
16286;SDS011;8251;53.568;10.018;2024-01-30T05:14:11;7.37;;;5.63;;
16286;SDS011;8251;53.568;10.018;2024-01-30T05:16:56;11.87;;;6.10;;
16286;SDS011;8251;53.568;10.018;2024-01-30T05:19:25;14.47;;;6.90;;
16286;SDS011;8251;53.568;10.018;2024-01-30T05:21:58;7.97;;;5.90;;
16286;SDS011;8251;53.568;10.018;2024-01-30T05:24:26;8.57;;;6.00;;
16286;SDS011;8251;53.568;10.018;2024-01-30T05:26:53;11.20;;;6.17;;
16286;SDS011;8251;53.568;10.018;2024-01-30T05:29:20;9.70;;;6.27;;
16286;SDS011;8251;53.568;10.018;2024-01-30T05:31:47;10.70;;;6.97;;
16286;SDS011;8251;53.568;10.018;2024-01-30T05:34:18;14.40;;;6.60;;
16286;SDS011;8251;53.568;10.018;2024-01-30T05:36:45;13.80;;;7.20;;
16286;SDS011;8251;53.568;10.018;2024-01-30T05:39:13;14.73;;;6.00;;
16286;SDS011;8251;53.568;10.018;2024-01-30T05:41:42;14.57;;;8.00;;
16286;SDS011;8251;53.568;10.018;2024-01-30T05:44:10;16.13;;;6.80;;
16286;SDS011;8251;53.568;10.018;2024-01-30T05:46:37;13.03;;;7.43;;
16286;SDS011;8251;53.568;10.018;2024-01-30T05:49:04;12.27;;;6.43;;
16286;SDS011;8251;53.568;10.018;2024-01-30T05:51:32;14.90;;;6.63;;
16286;SDS011;8251;53.568;10.018;2024-01-30T05:53:59;13.77;;;6.67;;
16286;SDS011;8251;53.568;10.018;2024-01-30T05:56:28;11.53;;;6.17;;
16286;SDS011;8251;53.568;10.018;2024-01-30T05:58:55;12.57;;;6.47;;
16286;SDS011;8251;53.568;10.018;2024-01-30T06:01:23;15.73;;;7.27;;
16286;SDS011;8251;53.568;10.018;2024-01-30T06:03:52;12.13;;;6.53;;
16286;SDS011;8251;53.568;10.018;2024-01-30T06:06:18;10.17;;;6.60;;
16286;SDS011;8251;53.568;10.018;2024-01-30T06:08:47;17.00;;;7.07;;
16286;SDS011;8251;53.568;10.018;2024-01-30T06:11:14;13.80;;;6.67;;
16286;SDS011;8251;53.568;10.018;2024-01-30T06:13:43;10.57;;;6.00;;
16286;SDS011;8251;53.568;10.018;2024-01-30T06:16:11;12.57;;;6.37;;
16286;SDS011;8251;53.568;10.018;2024-01-30T06:18:37;10.43;;;6.93;;
16286;SDS011;8251;53.568;10.018;2024-01-30T06:21:04;10.27;;;6.60;;
16286;SDS011;8251;53.568;10.018;2024-01-30T06:23:32;11.43;;;6.40;;
16286;SDS011;8251;53.568;10.018;2024-01-30T06:26:00;11.83;;;7.03;;
16286;SDS011;8251;53.568;10.018;2024-01-30T06:28:27;10.57;;;6.57;;
16286;SDS011;8251;53.568;10.018;2024-01-30T06:30:53;9.70;;;6.83;;
16286;SDS011;8251;53.568;10.018;2024-01-30T06:33:20;8.73;;;6.37;;
16286;SDS011;8251;53.568;10.018;2024-01-30T06:35:47;15.27;;;7.30;;
16286;SDS011;8251;53.568;10.018;2024-01-30T06:38:14;10.40;;;6.50;;
16286;SDS011;8251;53.568;10.018;2024-01-30T06:40:44;17.67;;;7.57;;
16286;SDS011;8251;53.568;10.018;2024-01-30T06:43:15;10.93;;;6.67;;
16286;SDS011;8251;53.568;10.018;2024-01-30T06:45:44;11.70;;;6.40;;
16286;SDS011;8251;53.568;10.018;2024-01-30T06:48:11;11.63;;;6.17;;
16286;SDS011;8251;53.568;10.018;2024-01-30T06:50:40;9.00;;;6.53;;
16286;SDS011;8251;53.568;10.018;2024-01-30T06:53:10;12.50;;;6.27;;
16286;SDS011;8251;53.568;10.018;2024-01-30T06:55:37;12.97;;;7.07;;
16286;SDS011;8251;53.568;10.018;2024-01-30T06:58:03;12.33;;;6.90;;
16286;SDS011;8251;53.568;10.018;2024-01-30T07:00:32;10.50;;;7.13;;
16286;SDS011;8251;53.568;10.018;2024-01-30T07:03:02;11.50;;;7.23;;
16286;SDS011;8251;53.568;10.018;2024-01-30T07:05:30;18.17;;;8.40;;
16286;SDS011;8251;53.568;10.018;2024-01-30T07:07:56;12.33;;;7.30;;
16286;SDS011;8251;53.568;10.018;2024-01-30T07:10:24;15.43;;;7.20;;
16286;SDS011;8251;53.568;10.018;2024-01-30T07:12:54;13.40;;;7.33;;
16286;SDS011;8251;53.568;10.018;2024-01-30T07:15:24;13.23;;;7.37;;
16286;SDS011;8251;53.568;10.018;2024-01-30T07:17:54;11.80;;;7.13;;
16286;SDS011;8251;53.568;10.018;2024-01-30T07:20:21;12.23;;;6.77;;
16286;SDS011;8251;53.568;10.018;2024-01-30T07:22:48;16.93;;;8.17;;
16286;SDS011;8251;53.568;10.018;2024-01-30T07:25:16;16.13;;;8.17;;
16286;SDS011;8251;53.568;10.018;2024-01-30T07:27:43;11.63;;;7.50;;
16286;SDS011;8251;53.568;10.018;2024-01-30T07:30:10;15.00;;;7.47;;
16286;SDS011;8251;53.568;10.018;2024-01-30T07:32:38;15.20;;;7.03;;
16286;SDS011;8251;53.568;10.018;2024-01-30T07:35:07;13.80;;;7.73;;
16286;SDS011;8251;53.568;10.018;2024-01-30T07:37:34;17.30;;;8.53;;
16286;SDS011;8251;53.568;10.018;2024-01-30T07:40:04;17.00;;;7.73;;
16286;SDS011;8251;53.568;10.018;2024-01-30T07:42:32;14.90;;;7.90;;
16286;SDS011;8251;53.568;10.018;2024-01-30T07:44:59;13.27;;;7.43;;
16286;SDS011;8251;53.568;10.018;2024-01-30T07:47:30;16.27;;;7.53;;
16286;SDS011;8251;53.568;10.018;2024-01-30T07:49:56;16.30;;;8.30;;
16286;SDS011;8251;53.568;10.018;2024-01-30T07:52:28;17.80;;;8.60;;
16286;SDS011;8251;53.568;10.018;2024-01-30T07:54:55;19.10;;;7.83;;
16286;SDS011;8251;53.568;10.018;2024-01-30T07:57:22;13.40;;;7.40;;
16286;SDS011;8251;53.568;10.018;2024-01-30T07:59:49;15.20;;;8.07;;
16286;SDS011;8251;53.568;10.018;2024-01-30T08:02:16;15.97;;;7.87;;
16286;SDS011;8251;53.568;10.018;2024-01-30T08:04:43;18.90;;;8.47;;
16286;SDS011;8251;53.568;10.018;2024-01-30T08:07:13;15.37;;;9.27;;
16286;SDS011;8251;53.568;10.018;2024-01-30T08:09:42;20.80;;;9.17;;
16286;SDS011;8251;53.568;10.018;2024-01-30T08:12:09;15.93;;;8.87;;
16286;SDS011;8251;53.568;10.018;2024-01-30T08:14:36;16.50;;;8.70;;
16286;SDS011;8251;53.568;10.018;2024-01-30T08:17:03;15.13;;;7.70;;
16286;SDS011;8251;53.568;10.018;2024-01-30T08:19:30;15.80;;;7.60;;
16286;SDS011;8251;53.568;10.018;2024-01-30T08:21:57;14.17;;;7.87;;
16286;SDS011;8251;53.568;10.018;2024-01-30T08:24:24;13.00;;;7.90;;
16286;SDS011;8251;53.568;10.018;2024-01-30T08:26:52;11.53;;;7.30;;
16286;SDS011;8251;53.568;10.018;2024-01-30T08:29:19;16.30;;;7.77;;
16286;SDS011;8251;53.568;10.018;2024-01-30T08:31:46;16.27;;;7.83;;
16286;SDS011;8251;53.568;10.018;2024-01-30T08:34:13;14.40;;;7.67;;
16286;SDS011;8251;53.568;10.018;2024-01-30T08:36:40;11.50;;;7.33;;
16286;SDS011;8251;53.568;10.018;2024-01-30T08:39:07;13.70;;;6.90;;
16286;SDS011;8251;53.568;10.018;2024-01-30T08:41:33;12.63;;;7.77;;
16286;SDS011;8251;53.568;10.018;2024-01-30T08:44:02;17.20;;;7.70;;
16286;SDS011;8251;53.568;10.018;2024-01-30T08:46:31;11.00;;;7.17;;
16286;SDS011;8251;53.568;10.018;2024-01-30T08:49:03;10.53;;;7.67;;
16286;SDS011;8251;53.568;10.018;2024-01-30T08:51:38;14.13;;;8.33;;
16286;SDS011;8251;53.568;10.018;2024-01-30T08:54:08;13.60;;;8.23;;
16286;SDS011;8251;53.568;10.018;2024-01-30T08:56:35;15.33;;;8.27;;
16286;SDS011;8251;53.568;10.018;2024-01-30T08:59:03;15.33;;;7.90;;
16286;SDS011;8251;53.568;10.018;2024-01-30T09:01:30;14.93;;;8.40;;
16286;SDS011;8251;53.568;10.018;2024-01-30T09:03:57;12.20;;;7.87;;
16286;SDS011;8251;53.568;10.018;2024-01-30T09:06:24;14.67;;;7.87;;
16286;SDS011;8251;53.568;10.018;2024-01-30T09:08:54;18.20;;;8.90;;
16286;SDS011;8251;53.568;10.018;2024-01-30T09:11:23;14.90;;;8.50;;
16286;SDS011;8251;53.568;10.018;2024-01-30T09:13:53;18.70;;;8.07;;
16286;SDS011;8251;53.568;10.018;2024-01-30T09:16:21;12.70;;;7.63;;
16286;SDS011;8251;53.568;10.018;2024-01-30T09:18:48;13.67;;;8.47;;
16286;SDS011;8251;53.568;10.018;2024-01-30T09:21:14;11.40;;;7.87;;
16286;SDS011;8251;53.568;10.018;2024-01-30T09:23:41;17.33;;;8.30;;
16286;SDS011;8251;53.568;10.018;2024-01-30T09:26:08;15.80;;;8.20;;
16286;SDS011;8251;53.568;10.018;2024-01-30T09:28:35;14.60;;;7.90;;
16286;SDS011;8251;53.568;10.018;2024-01-30T09:31:09;15.33;;;8.23;;
16286;SDS011;8251;53.568;10.018;2024-01-30T09:33:40;11.37;;;7.20;;
16286;SDS011;8251;53.568;10.018;2024-01-30T09:36:09;17.10;;;8.53;;
16286;SDS011;8251;53.568;10.018;2024-01-30T09:38:39;17.03;;;8.27;;
16286;SDS011;8251;53.568;10.018;2024-01-30T09:41:07;15.07;;;8.43;;
16286;SDS011;8251;53.568;10.018;2024-01-30T09:43:36;14.33;;;8.40;;
16286;SDS011;8251;53.568;10.018;2024-01-30T09:46:04;14.10;;;8.10;;
16286;SDS011;8251;53.568;10.018;2024-01-30T09:48:38;16.33;;;8.30;;
16286;SDS011;8251;53.568;10.018;2024-01-30T09:51:06;17.47;;;8.23;;
16286;SDS011;8251;53.568;10.018;2024-01-30T09:53:37;16.37;;;8.53;;
16286;SDS011;8251;53.568;10.018;2024-01-30T09:56:05;12.90;;;7.63;;
16286;SDS011;8251;53.568;10.018;2024-01-30T09:58:33;20.73;;;7.77;;
16286;SDS011;8251;53.568;10.018;2024-01-30T10:01:00;16.13;;;7.87;;
16286;SDS011;8251;53.568;10.018;2024-01-30T10:03:27;15.73;;;9.27;;
16286;SDS011;8251;53.568;10.018;2024-01-30T10:05:56;17.47;;;9.03;;
16286;SDS011;8251;53.568;10.018;2024-01-30T10:08:25;19.63;;;11.57;;
16286;SDS011;8251;53.568;10.018;2024-01-30T10:10:54;17.73;;;8.67;;
16286;SDS011;8251;53.568;10.018;2024-01-30T10:13:25;13.40;;;8.03;;
16286;SDS011;8251;53.568;10.018;2024-01-30T10:15:52;17.60;;;8.37;;
16286;SDS011;8251;53.568;10.018;2024-01-30T10:18:20;14.20;;;9.07;;
16286;SDS011;8251;53.568;10.018;2024-01-30T10:20:48;18.53;;;8.03;;
16286;SDS011;8251;53.568;10.018;2024-01-30T10:23:19;13.63;;;8.00;;
16286;SDS011;8251;53.568;10.018;2024-01-30T10:25:46;17.77;;;7.47;;
16286;SDS011;8251;53.568;10.018;2024-01-30T10:28:13;14.57;;;7.70;;
16286;SDS011;8251;53.568;10.018;2024-01-30T10:30:40;14.60;;;8.60;;
16286;SDS011;8251;53.568;10.018;2024-01-30T10:33:07;16.87;;;8.23;;
16286;SDS011;8251;53.568;10.018;2024-01-30T10:35:35;12.83;;;8.77;;
16286;SDS011;8251;53.568;10.018;2024-01-30T10:38:02;12.40;;;8.20;;
16286;SDS011;8251;53.568;10.018;2024-01-30T10:40:31;12.53;;;7.87;;
16286;SDS011;8251;53.568;10.018;2024-01-30T10:43:02;17.60;;;8.10;;
16286;SDS011;8251;53.568;10.018;2024-01-30T10:45:33;16.10;;;8.87;;
16286;SDS011;8251;53.568;10.018;2024-01-30T10:48:07;15.00;;;8.27;;
16286;SDS011;8251;53.568;10.018;2024-01-30T10:50:36;13.30;;;8.70;;
16286;SDS011;8251;53.568;10.018;2024-01-30T10:53:07;15.37;;;8.60;;
16286;SDS011;8251;53.568;10.018;2024-01-30T10:55:36;16.57;;;7.97;;
16286;SDS011;8251;53.568;10.018;2024-01-30T10:58:05;16.60;;;8.77;;
16286;SDS011;8251;53.568;10.018;2024-01-30T11:00:32;20.57;;;8.03;;
16286;SDS011;8251;53.568;10.018;2024-01-30T11:02:59;12.80;;;8.33;;
16286;SDS011;8251;53.568;10.018;2024-01-30T11:05:27;26.43;;;8.90;;
16286;SDS011;8251;53.568;10.018;2024-01-30T11:07:54;19.13;;;8.80;;
16286;SDS011;8251;53.568;10.018;2024-01-30T11:10:21;16.47;;;8.33;;
16286;SDS011;8251;53.568;10.018;2024-01-30T11:12:53;15.03;;;8.50;;
16286;SDS011;8251;53.568;10.018;2024-01-30T11:15:20;17.67;;;10.77;;
16286;SDS011;8251;53.568;10.018;2024-01-30T11:17:51;14.93;;;8.43;;
16286;SDS011;8251;53.568;10.018;2024-01-30T11:20:19;16.03;;;9.17;;
16286;SDS011;8251;53.568;10.018;2024-01-30T11:22:49;11.60;;;7.87;;
16286;SDS011;8251;53.568;10.018;2024-01-30T11:25:19;10.87;;;6.93;;
16286;SDS011;8251;53.568;10.018;2024-01-30T11:27:49;14.60;;;8.10;;
16286;SDS011;8251;53.568;10.018;2024-01-30T11:30:25;13.00;;;7.07;;
16286;SDS011;8251;53.568;10.018;2024-01-30T11:33:02;14.17;;;8.30;;
16286;SDS011;8251;53.568;10.018;2024-01-30T11:35:31;16.20;;;8.33;;
16286;SDS011;8251;53.568;10.018;2024-01-30T11:37:59;20.37;;;7.73;;
16286;SDS011;8251;53.568;10.018;2024-01-30T11:40:27;14.87;;;7.73;;
16286;SDS011;8251;53.568;10.018;2024-01-30T11:42:55;12.20;;;7.60;;
16286;SDS011;8251;53.568;10.018;2024-01-30T11:45:22;17.67;;;7.80;;
16286;SDS011;8251;53.568;10.018;2024-01-30T11:47:50;14.30;;;7.90;;
16286;SDS011;8251;53.568;10.018;2024-01-30T11:50:17;19.10;;;11.03;;
16286;SDS011;8251;53.568;10.018;2024-01-30T11:52:44;16.23;;;8.83;;
16286;SDS011;8251;53.568;10.018;2024-01-30T11:55:11;16.70;;;8.13;;
16286;SDS011;8251;53.568;10.018;2024-01-30T11:57:41;13.13;;;7.30;;
16286;SDS011;8251;53.568;10.018;2024-01-30T12:00:16;14.33;;;7.50;;
16286;SDS011;8251;53.568;10.018;2024-01-30T12:02:44;15.97;;;8.23;;
16286;SDS011;8251;53.568;10.018;2024-01-30T12:05:18;9.43;;;6.87;;
16286;SDS011;8251;53.568;10.018;2024-01-30T12:07:45;11.50;;;7.20;;
16286;SDS011;8251;53.568;10.018;2024-01-30T12:10:12;11.20;;;6.87;;
16286;SDS011;8251;53.568;10.018;2024-01-30T12:12:45;13.83;;;7.63;;
16286;SDS011;8251;53.568;10.018;2024-01-30T12:15:21;14.63;;;7.33;;
16286;SDS011;8251;53.568;10.018;2024-01-30T12:17:48;10.60;;;7.40;;
16286;SDS011;8251;53.568;10.018;2024-01-30T12:20:17;14.70;;;8.90;;
16286;SDS011;8251;53.568;10.018;2024-01-30T12:22:45;12.43;;;7.17;;
16286;SDS011;8251;53.568;10.018;2024-01-30T12:25:14;16.37;;;7.27;;
16286;SDS011;8251;53.568;10.018;2024-01-30T12:27:42;13.70;;;8.50;;
16286;SDS011;8251;53.568;10.018;2024-01-30T12:30:15;12.17;;;8.40;;
16286;SDS011;8251;53.568;10.018;2024-01-30T12:32:43;16.97;;;8.57;;
16286;SDS011;8251;53.568;10.018;2024-01-30T12:35:11;9.67;;;6.87;;
16286;SDS011;8251;53.568;10.018;2024-01-30T12:37:40;13.43;;;8.37;;
16286;SDS011;8251;53.568;10.018;2024-01-30T12:40:09;13.47;;;7.03;;
16286;SDS011;8251;53.568;10.018;2024-01-30T12:42:38;9.77;;;6.07;;
16286;SDS011;8251;53.568;10.018;2024-01-30T12:45:05;13.93;;;7.10;;
16286;SDS011;8251;53.568;10.018;2024-01-30T12:47:33;9.13;;;6.20;;
16286;SDS011;8251;53.568;10.018;2024-01-30T12:50:03;9.63;;;5.57;;
16286;SDS011;8251;53.568;10.018;2024-01-30T12:52:30;12.27;;;6.97;;
16286;SDS011;8251;53.568;10.018;2024-01-30T12:54:58;9.10;;;6.10;;
16286;SDS011;8251;53.568;10.018;2024-01-30T12:57:26;11.43;;;6.30;;
16286;SDS011;8251;53.568;10.018;2024-01-30T12:59:55;8.57;;;5.50;;
16286;SDS011;8251;53.568;10.018;2024-01-30T13:02:22;10.60;;;6.43;;
16286;SDS011;8251;53.568;10.018;2024-01-30T13:04:54;9.23;;;6.20;;
16286;SDS011;8251;53.568;10.018;2024-01-30T13:07:21;10.93;;;6.57;;
16286;SDS011;8251;53.568;10.018;2024-01-30T13:09:48;9.60;;;6.87;;
16286;SDS011;8251;53.568;10.018;2024-01-30T13:12:16;9.37;;;6.10;;
16286;SDS011;8251;53.568;10.018;2024-01-30T13:14:45;8.20;;;5.83;;
16286;SDS011;8251;53.568;10.018;2024-01-30T13:17:13;13.00;;;7.10;;
16286;SDS011;8251;53.568;10.018;2024-01-30T13:19:39;11.33;;;6.33;;
16286;SDS011;8251;53.568;10.018;2024-01-30T13:22:06;13.13;;;6.63;;
16286;SDS011;8251;53.568;10.018;2024-01-30T13:24:33;10.17;;;6.67;;
16286;SDS011;8251;53.568;10.018;2024-01-30T13:27:02;10.17;;;6.10;;
16286;SDS011;8251;53.568;10.018;2024-01-30T13:29:41;15.30;;;6.57;;
16286;SDS011;8251;53.568;10.018;2024-01-30T13:32:07;8.50;;;6.03;;
16286;SDS011;8251;53.568;10.018;2024-01-30T13:34:37;9.50;;;6.90;;
16286;SDS011;8251;53.568;10.018;2024-01-30T13:37:05;12.53;;;6.70;;
16286;SDS011;8251;53.568;10.018;2024-01-30T13:39:32;10.87;;;7.50;;
16286;SDS011;8251;53.568;10.018;2024-01-30T13:42:01;10.60;;;6.57;;
16286;SDS011;8251;53.568;10.018;2024-01-30T13:44:29;11.17;;;6.07;;
16286;SDS011;8251;53.568;10.018;2024-01-30T13:46:59;21.13;;;8.73;;
16286;SDS011;8251;53.568;10.018;2024-01-30T13:49:26;10.77;;;6.93;;
16286;SDS011;8251;53.568;10.018;2024-01-30T13:51:52;16.47;;;9.03;;
16286;SDS011;8251;53.568;10.018;2024-01-30T13:54:26;12.60;;;7.43;;
16286;SDS011;8251;53.568;10.018;2024-01-30T13:56:56;10.90;;;6.53;;
16286;SDS011;8251;53.568;10.018;2024-01-30T13:59:25;11.63;;;6.80;;
16286;SDS011;8251;53.568;10.018;2024-01-30T14:01:52;12.47;;;6.17;;
16286;SDS011;8251;53.568;10.018;2024-01-30T14:04:20;8.97;;;6.20;;
16286;SDS011;8251;53.568;10.018;2024-01-30T14:06:47;16.43;;;6.30;;
16286;SDS011;8251;53.568;10.018;2024-01-30T14:09:14;10.10;;;5.83;;
16286;SDS011;8251;53.568;10.018;2024-01-30T14:11:44;10.57;;;7.07;;
16286;SDS011;8251;53.568;10.018;2024-01-30T14:14:11;9.93;;;6.60;;
16286;SDS011;8251;53.568;10.018;2024-01-30T14:16:37;10.50;;;6.50;;
16286;SDS011;8251;53.568;10.018;2024-01-30T14:19:04;10.17;;;6.53;;
16286;SDS011;8251;53.568;10.018;2024-01-30T14:21:33;14.13;;;6.80;;
16286;SDS011;8251;53.568;10.018;2024-01-30T14:24:00;13.30;;;6.30;;
16286;SDS011;8251;53.568;10.018;2024-01-30T14:26:29;11.70;;;6.57;;
16286;SDS011;8251;53.568;10.018;2024-01-30T14:28:56;17.57;;;7.73;;
16286;SDS011;8251;53.568;10.018;2024-01-30T14:31:23;12.93;;;6.00;;
16286;SDS011;8251;53.568;10.018;2024-01-30T14:33:50;8.40;;;6.07;;
16286;SDS011;8251;53.568;10.018;2024-01-30T14:36:17;11.20;;;6.73;;
16286;SDS011;8251;53.568;10.018;2024-01-30T14:38:48;10.17;;;6.60;;
16286;SDS011;8251;53.568;10.018;2024-01-30T14:41:15;14.83;;;6.97;;
16286;SDS011;8251;53.568;10.018;2024-01-30T14:43:42;10.87;;;6.80;;
16286;SDS011;8251;53.568;10.018;2024-01-30T14:46:09;12.77;;;6.20;;
16286;SDS011;8251;53.568;10.018;2024-01-30T14:48:36;12.47;;;6.60;;
16286;SDS011;8251;53.568;10.018;2024-01-30T14:51:03;13.13;;;7.53;;
16286;SDS011;8251;53.568;10.018;2024-01-30T14:53:36;11.83;;;6.23;;